Braselton, Georgia
Current Conditions -  °F | °C
As of 5:55 PM on Tuesday 25 Nov 2014 (Local Time) from KWDR Reporting Station
Clear Clear  
Wind Chill: 55°   Ceiling: Unl
Heat Index: 55°   Visibility: 10mi
Dew Point: 42°   Wind: 5mph
Humidity: 62%   Direction: 230°SW
Pressure: 30.05"   Gusts: NA
Location:  34.11°N, 83.76°W
Report Text: KWDR 252255Z AUTO 23004KT 10SM CLR 13/05 A3005 RMK AO2 T01250054
Loading
Personal Weather Stations






























Interactive Weather Map New forecast layout! Learn more

10-Day Weather Forecast

Advertisements
Track Severe Weather on mobile